Time;durP1;ratioP1;P1;durP2;ratioP2;P2;SDS_P1;SDS_P2;PMS_P1;PMS_P2;Temp;Humidity;BMP_temperature;BMP_pressure;BME280_temperature;BME280_humidity;BME280_pressure;Samples;Min_cycle;Max_cycle;Signal;HPM_P1;HPM_P2
2021/03/07 00:02:04;;;;;;;20.57;9.40;;;-0.60;99.70;;;;;;5069409;28;20454;-71
2021/03/07 00:04:30;;;;;;;21.00;10.00;;;-0.50;99.70;;;;;;5069703;28;20443;-72
2021/03/07 00:06:57;;;;;;;21.60;9.70;;;-0.50;99.70;;;;;;5072581;28;20443;-73
2021/03/07 00:09:23;;;;;;;18.17;9.10;;;-0.60;99.70;;;;;;5073342;28;20987;-71
2021/03/07 00:11:50;;;;;;;19.43;9.20;;;-0.70;99.70;;;;;;5073323;28;20447;-72
2021/03/07 00:14:16;;;;;;;21.23;9.10;;;-0.80;99.70;;;;;;5073572;28;20915;-72
2021/03/07 00:16:42;;;;;;;17.33;9.10;;;-0.70;99.70;;;;;;5072837;28;20486;-71
2021/03/07 00:19:08;;;;;;;18.60;8.97;;;-0.70;99.70;;;;;;5073283;28;20462;-71
2021/03/07 00:21:34;;;;;;;19.70;8.83;;;-0.70;99.70;;;;;;5073216;28;20940;-70
2021/03/07 00:24:02;;;;;;;20.30;9.50;;;-0.70;99.70;;;;;;5073210;28;20438;-73
2021/03/07 00:26:28;;;;;;;21.17;9.17;;;-0.70;99.70;;;;;;5072782;28;20446;-71
2021/03/07 00:28:54;;;;;;;22.90;10.83;;;-0.70;99.70;;;;;;5072889;28;20500;-71
2021/03/07 00:31:20;;;;;;;20.80;9.40;;;-0.70;99.70;;;;;;5073049;28;20507;-71
2021/03/07 00:33:47;;;;;;;23.93;9.63;;;-0.80;99.70;;;;;;5073118;28;20458;-71
2021/03/07 00:36:13;;;;;;;20.47;9.20;;;-0.80;99.70;;;;;;5072539;28;20854;-71
2021/03/07 00:38:39;;;;;;;23.77;10.00;;;-0.90;99.70;;;;;;5073106;28;20886;-71
2021/03/07 00:41:06;;;;;;;18.70;9.40;;;-0.90;99.70;;;;;;5072714;28;20454;-73
2021/03/07 00:43:32;;;;;;;20.77;9.87;;;-1.10;99.70;;;;;;5072865;28;20447;-71
2021/03/07 00:45:59;;;;;;;22.70;10.07;;;-1.10;99.70;;;;;;5072434;28;20932;-71
2021/03/07 00:48:25;;;;;;;22.90;10.27;;;-1.10;99.70;;;;;;5072785;28;20467;-71
2021/03/07 00:50:51;;;;;;;21.17;9.97;;;-1.20;99.70;;;;;;5072621;28;20450;-71
2021/03/07 00:53:17;;;;;;;19.20;9.20;;;-1.20;99.70;;;;;;5072603;28;20452;-72
2021/03/07 00:55:43;;;;;;;21.90;10.40;;;-1.20;99.70;;;;;;5072202;28;20443;-73
2021/03/07 00:58:10;;;;;;;22.40;9.83;;;-1.20;99.70;;;;;;5072413;28;20482;-73
2021/03/07 01:00:36;;;;;;;20.63;9.40;;;-1.20;99.70;;;;;;5072644;28;20450;-71
2021/03/07 01:03:03;;;;;;;23.07;9.40;;;-1.20;99.70;;;;;;5072099;28;20801;-71
2021/03/07 01:05:30;;;;;;;17.33;9.33;;;-1.20;99.70;;;;;;5072167;28;20446;-71
2021/03/07 01:07:57;;;;;;;21.10;9.77;;;-1.40;99.70;;;;;;5072084;28;20976;-72
2021/03/07 01:10:27;;;;;;;21.23;9.60;;;-1.30;99.70;;;;;;5072381;28;20447;-71
2021/03/07 01:12:53;;;;;;;22.60;9.93;;;-1.20;99.70;;;;;;5072272;28;21545;-72
2021/03/07 01:15:22;;;;;;;25.70;10.53;;;-1.30;99.70;;;;;;5072254;28;20443;-71
2021/03/07 01:17:48;;;;;;;27.73;11.27;;;-1.40;99.70;;;;;;5070480;28;20486;-72
2021/03/07 01:20:17;;;;;;;33.90;12.80;;;-1.40;99.70;;;;;;5072235;28;20443;-72
2021/03/07 01:22:43;;;;;;;25.67;11.43;;;-1.40;99.70;;;;;;5071669;28;20447;-72
2021/03/07 01:25:10;;;;;;;29.33;12.17;;;-1.20;99.70;;;;;;5071648;28;20454;-71
2021/03/07 01:27:37;;;;;;;25.63;12.47;;;-1.20;99.70;;;;;;5071679;28;20478;-71
2021/03/07 01:30:06;;;;;;;23.17;11.47;;;-1.30;99.70;;;;;;5072029;28;20439;-72
2021/03/07 01:32:33;;;;;;;31.00;13.43;;;-1.30;99.70;;;;;;5071875;28;20445;-71
2021/03/07 01:34:59;;;;;;;35.80;13.53;;;-1.40;99.70;;;;;;5071596;28;20442;-73
2021/03/07 01:37:25;;;;;;;31.53;12.60;;;-1.40;99.70;;;;;;5071477;28;20537;-73
2021/03/07 01:39:53;;;;;;;36.07;14.17;;;-1.50;99.70;;;;;;5071706;28;20449;-73
2021/03/07 01:42:20;;;;;;;36.20;13.70;;;-1.40;99.70;;;;;;5071605;28;20947;-71
2021/03/07 01:44:46;;;;;;;33.37;14.60;;;-1.40;99.70;;;;;;5071549;28;20451;-73
2021/03/07 01:47:13;;;;;;;31.57;12.70;;;-1.40;99.70;;;;;;5071117;28;20624;-71
2021/03/07 01:49:41;;;;;;;29.47;12.07;;;-1.50;99.70;;;;;;5071815;28;20442;-71
2021/03/07 01:52:07;;;;;;;24.73;11.30;;;-1.50;99.70;;;;;;5071397;28;20447;-71
2021/03/07 01:54:34;;;;;;;26.47;10.73;;;-1.40;99.70;;;;;;5071499;28;20496;-72
2021/03/07 01:57:02;;;;;;;22.67;9.60;;;-1.60;99.70;;;;;;5071053;28;20485;-71
2021/03/07 01:59:32;;;;;;;18.20;8.30;;;-1.70;99.70;;;;;;5071272;28;20467;-72
2021/03/07 02:01:59;;;;;;;21.20;8.90;;;-1.70;99.70;;;;;;5070919;28;20496;-72
2021/03/07 02:04:25;;;;;;;17.50;7.97;;;-1.60;99.70;;;;;;5071398;28;20442;-71
2021/03/07 02:06:52;;;;;;;16.70;7.60;;;-1.60;99.70;;;;;;5070681;28;20445;-71
2021/03/07 02:09:18;;;;;;;15.97;7.67;;;-1.50;99.70;;;;;;5071081;28;20474;-71
2021/03/07 02:11:45;;;;;;;16.43;7.53;;;-1.30;99.70;;;;;;5071183;28;20447;-73
2021/03/07 02:14:12;;;;;;;13.83;7.40;;;-1.30;99.70;;;;;;5071429;28;20508;-72
2021/03/07 02:16:39;;;;;;;16.37;7.30;;;-1.00;99.70;;;;;;5070817;28;20501;-71
2021/03/07 02:19:06;;;;;;;15.00;7.70;;;-0.90;99.70;;;;;;5071147;28;20524;-74
2021/03/07 02:21:35;;;;;;;17.90;8.53;;;-1.00;99.70;;;;;;5071381;28;20826;-71
2021/03/07 02:24:06;;;;;;;18.83;8.43;;;-1.00;99.70;;;;;;5071195;28;20458;-72
2021/03/07 02:26:33;;;;;;;14.80;8.00;;;-0.70;99.70;;;;;;5070982;28;20500;-72
2021/03/07 02:29:00;;;;;;;15.60;8.40;;;-0.60;99.70;;;;;;5070549;28;20471;-71
2021/03/07 02:31:28;;;;;;;14.50;7.40;;;-0.80;99.70;;;;;;5071176;28;20447;-71
2021/03/07 02:34:00;;;;;;;18.13;7.83;;;-0.80;99.70;;;;;;5070984;28;20442;-71
2021/03/07 02:36:30;;;;;;;15.50;7.80;;;-0.60;99.70;;;;;;5070822;28;20971;-71
2021/03/07 02:38:59;;;;;;;17.37;8.00;;;-0.80;99.70;;;;;;5070881;28;20487;-71
2021/03/07 02:41:30;;;;;;;13.90;7.40;;;-0.90;99.70;;;;;;5070929;28;20435;-70
2021/03/07 02:43:59;;;;;;;13.23;7.23;;;-1.00;99.70;;;;;;5070888;28;20434;-71
2021/03/07 02:46:27;;;;;;;15.93;7.80;;;-1.00;99.70;;;;;;5070615;28;20442;-72
2021/03/07 02:48:56;;;;;;;12.50;6.40;;;-0.90;99.70;;;;;;5070435;28;20462;-71
2021/03/07 02:51:26;;;;;;;13.80;6.90;;;-1.00;99.70;;;;;;5070576;28;20439;-71
2021/03/07 02:53:54;;;;;;;13.47;6.57;;;-1.00;99.70;;;;;;5070325;28;20979;-71
2021/03/07 02:56:23;;;;;;;14.73;7.07;;;-1.10;99.70;;;;;;5070169;28;20494;-71
2021/03/07 02:58:59;;;;;;;13.80;6.70;;;-1.00;99.70;;;;;;5069922;28;20490;-71
2021/03/07 03:01:27;;;;;;;13.90;6.80;;;-1.10;99.70;;;;;;5070397;28;21026;-71
2021/03/07 03:03:54;;;;;;;15.17;7.70;;;-1.10;99.70;;;;;;5070496;28;20458;-71
2021/03/07 03:06:22;;;;;;;14.10;6.33;;;-1.20;99.70;;;;;;5070444;28;20435;-72
2021/03/07 03:08:52;;;;;;;16.60;6.90;;;-1.20;99.70;;;;;;5070266;28;20458;-72
2021/03/07 03:11:19;;;;;;;15.07;7.30;;;-1.20;99.70;;;;;;5070674;28;20447;-73
2021/03/07 03:13:49;;;;;;;18.60;7.53;;;-1.20;99.70;;;;;;5070763;28;20450;-71
2021/03/07 03:16:17;;;;;;;15.07;7.13;;;-1.20;99.70;;;;;;5077797;28;20471;-72
2021/03/07 03:18:44;;;;;;;13.60;6.83;;;-1.20;99.70;;;;;;5069609;28;20999;-72
2021/03/07 03:21:13;;;;;;;14.40;6.77;;;-1.20;99.70;;;;;;5070081;28;20476;-74
2021/03/07 03:23:40;;;;;;;14.70;6.50;;;-1.10;99.70;;;;;;5070018;28;20458;-71
2021/03/07 03:26:07;;;;;;;13.83;6.20;;;-1.00;99.70;;;;;;5069987;28;20478;-71
2021/03/07 03:28:33;;;;;;;12.13;6.23;;;-1.00;99.70;;;;;;5069683;28;20479;-71
2021/03/07 03:31:00;;;;;;;10.47;5.53;;;-1.00;99.70;;;;;;5070180;28;20916;-71
2021/03/07 03:33:27;;;;;;;13.77;6.57;;;-0.90;99.70;;;;;;5069840;28;20458;-72
2021/03/07 03:35:54;;;;;;;11.90;6.60;;;-0.80;99.70;;;;;;5069800;28;20447;-71
2021/03/07 03:38:24;;;;;;;11.93;6.07;;;-0.90;99.70;;;;;;5069544;28;20543;-74
2021/03/07 03:40:54;;;;;;;13.27;7.60;;;-1.00;99.70;;;;;;5071401;28;20508;-71
2021/03/07 03:43:21;;;;;;;15.27;6.60;;;-1.00;99.70;;;;;;5074077;28;20443;-72
2021/03/07 03:45:50;;;;;;;13.67;7.50;;;-1.10;99.70;;;;;;5073667;28;20435;-71
2021/03/07 03:48:21;;;;;;;14.50;7.10;;;-1.00;99.70;;;;;;5073567;28;20999;-73
2021/03/07 03:50:49;;;;;;;16.00;8.30;;;-1.00;99.70;;;;;;5073950;28;20438;-72
2021/03/07 03:53:18;;;;;;;15.47;7.83;;;-1.10;99.70;;;;;;5073864;28;20949;-71
2021/03/07 03:55:48;;;;;;;14.23;7.50;;;-1.10;99.70;;;;;;5073553;28;20491;-71
2021/03/07 03:58:17;;;;;;;16.80;7.80;;;-1.20;99.70;;;;;;5073444;28;20536;-73
2021/03/07 04:00:44;;;;;;;16.30;7.50;;;-1.10;99.70;;;;;;5073793;28;20442;-73
2021/03/07 04:03:13;;;;;;;16.90;7.60;;;-1.20;99.70;;;;;;5073123;28;20454;-74
2021/03/07 04:05:43;;;;;;;14.50;7.47;;;-1.20;99.70;;;;;;5073346;28;20450;-72
2021/03/07 04:08:11;;;;;;;16.23;7.40;;;-1.20;99.70;;;;;;5073276;28;20600;-71
2021/03/07 04:10:37;;;;;;;15.73;7.70;;;-1.30;99.70;;;;;;5073548;28;20457;-71
2021/03/07 04:13:04;;;;;;;14.90;7.37;;;-1.30;99.70;;;;;;5073376;28;20446;-74
2021/03/07 04:15:31;;;;;;;14.20;6.83;;;-1.30;99.70;;;;;;5072988;28;20947;-71
2021/03/07 04:17:58;;;;;;;14.87;7.80;;;-1.30;99.70;;;;;;5073064;28;20486;-71
2021/03/07 04:20:26;;;;;;;15.20;7.90;;;-1.30;99.70;;;;;;5073163;28;20453;-70
2021/03/07 04:22:53;;;;;;;15.27;7.53;;;-1.40;99.70;;;;;;5073399;28;20447;-71
2021/03/07 04:25:20;;;;;;;14.40;6.87;;;-1.30;99.70;;;;;;5073015;28;20455;-72
2021/03/07 04:27:48;;;;;;;17.53;7.40;;;-1.30;99.70;;;;;;5072839;28;21196;-71
2021/03/07 04:30:16;;;;;;;16.67;7.73;;;-1.50;99.70;;;;;;5073053;28;20438;-72
2021/03/07 04:32:44;;;;;;;15.77;7.57;;;-1.40;99.70;;;;;;5073143;28;20446;-71
2021/03/07 04:35:12;;;;;;;16.20;7.57;;;-1.40;99.70;;;;;;5072630;28;20492;-71
2021/03/07 04:37:39;;;;;;;16.33;7.20;;;-1.50;99.70;;;;;;5072837;28;20487;-72
2021/03/07 04:40:06;;;;;;;16.93;7.80;;;-1.50;99.70;;;;;;5072930;28;20666;-71
2021/03/07 04:42:34;;;;;;;19.57;8.00;;;-1.50;99.70;;;;;;5073079;28;20443;-71
2021/03/07 04:45:00;;;;;;;13.70;7.70;;;-1.50;99.70;;;;;;5072601;28;20439;-71
2021/03/07 04:47:26;;;;;;;19.60;7.87;;;-1.60;99.70;;;;;;5072594;28;20442;-71
2021/03/07 04:49:53;;;;;;;16.50;7.30;;;-1.50;99.70;;;;;;5072660;28;20450;-71
2021/03/07 04:52:19;;;;;;;15.13;7.53;;;-1.40;99.70;;;;;;5072393;28;20454;-71
2021/03/07 04:54:45;;;;;;;17.33;7.90;;;-1.40;99.70;;;;;;5072553;28;20447;-71
2021/03/07 04:57:11;;;;;;;16.13;7.23;;;-1.50;99.70;;;;;;5072122;28;20474;-71
2021/03/07 04:59:38;;;;;;;18.87;8.03;;;-1.10;99.70;;;;;;5072561;28;20439;-71
2021/03/07 05:02:05;;;;;;;17.83;7.80;;;-1.10;99.70;;;;;;5072284;28;20465;-72
2021/03/07 05:04:31;;;;;;;19.20;8.63;;;-1.30;99.70;;;;;;5072927;28;20442;-71
2021/03/07 05:07:00;;;;;;;15.13;7.43;;;-1.50;99.70;;;;;;5072325;28;20940;-71
2021/03/07 05:09:26;;;;;;;18.63;8.20;;;-1.30;99.70;;;;;;5072556;28;20471;-73
2021/03/07 05:11:53;;;;;;;15.93;8.27;;;-1.20;99.70;;;;;;5072721;28;20435;-72
2021/03/07 05:14:19;;;;;;;14.83;8.00;;;-1.30;99.70;;;;;;5072545;28;20443;-71
2021/03/07 05:16:46;;;;;;;17.20;7.57;;;-1.40;99.70;;;;;;5093960;22;21062;-72
2021/03/07 05:19:13;;;;;;;14.63;7.20;;;-1.40;99.70;;;;;;5071646;28;20500;-73
2021/03/07 05:21:39;;;;;;;14.87;7.90;;;-1.50;99.70;;;;;;5071796;28;20446;-73
2021/03/07 05:24:06;;;;;;;15.73;7.70;;;-1.60;99.70;;;;;;5071576;28;20496;-72
2021/03/07 05:26:33;;;;;;;15.50;7.33;;;-1.60;99.70;;;;;;5070726;28;20462;-74
2021/03/07 05:28:59;;;;;;;14.00;7.40;;;-1.50;99.70;;;;;;5071243;28;20529;-73
2021/03/07 05:31:25;;;;;;;15.93;7.13;;;-1.50;99.70;;;;;;5071156;28;20818;-72
2021/03/07 05:33:52;;;;;;;15.00;7.20;;;-1.60;99.70;;;;;;5071276;28;20865;-72
2021/03/07 05:36:18;;;;;;;17.30;7.43;;;-1.50;99.70;;;;;;5070611;28;20459;-72
2021/03/07 05:38:45;;;;;;;13.93;8.00;;;-1.70;99.70;;;;;;5070818;28;20483;-72
2021/03/07 05:41:13;;;;;;;13.37;7.03;;;-1.70;99.70;;;;;;5071243;28;20938;-73
2021/03/07 05:43:40;;;;;;;17.43;7.50;;;-1.70;99.70;;;;;;5071165;28;20497;-70
2021/03/07 05:46:06;;;;;;;16.77;7.50;;;-1.80;99.70;;;;;;5070220;28;20474;-73
2021/03/07 05:48:32;;;;;;;16.70;7.90;;;-1.80;99.70;;;;;;5070607;28;20442;-72
2021/03/07 05:50:59;;;;;;;17.20;7.77;;;-1.90;99.70;;;;;;5070970;28;20447;-73
2021/03/07 05:53:28;;;;;;;14.10;6.93;;;-1.90;99.70;;;;;;5070758;28;20443;-71
2021/03/07 05:55:54;;;;;;;17.00;8.03;;;-2.00;99.70;;;;;;5070208;28;20557;-71
2021/03/07 05:58:21;;;;;;;16.23;7.73;;;-1.90;99.70;;;;;;5070351;28;20478;-71
2021/03/07 06:00:47;;;;;;;17.33;7.77;;;-2.00;99.70;;;;;;5070526;28;20443;-71
2021/03/07 06:03:14;;;;;;;16.53;7.80;;;-2.10;99.70;;;;;;5068769;28;20474;-71
2021/03/07 06:05:41;;;;;;;16.60;7.20;;;-2.20;99.70;;;;;;5069981;28;20459;-72
2021/03/07 06:08:08;;;;;;;14.27;7.17;;;-2.20;99.70;;;;;;5070609;28;20447;-71
2021/03/07 06:10:40;;;;;;;15.40;7.60;;;-2.00;99.70;;;;;;5070354;28;20443;-72
2021/03/07 06:13:10;;;;;;;12.23;6.50;;;-1.90;99.70;;;;;;5070444;28;21023;-71
2021/03/07 06:15:37;;;;;;;14.43;7.03;;;-1.80;99.70;;;;;;5069726;28;20861;-70
2021/03/07 06:18:12;;;;;;;13.03;6.40;;;-1.70;99.70;;;;;;5069997;28;20490;-70
2021/03/07 06:20:38;;;;;;;12.87;6.33;;;-1.70;99.70;;;;;;5070235;28;20451;-70
2021/03/07 06:23:04;;;;;;;13.60;7.00;;;-1.60;99.70;;;;;;5070149;28;20823;-70
2021/03/07 06:25:32;;;;;;;14.00;6.47;;;-1.60;99.70;;;;;;5069599;28;20873;-71
2021/03/07 06:27:59;;;;;;;10.80;5.87;;;-1.50;99.70;;;;;;5069790;28;20439;-71
2021/03/07 06:30:28;;;;;;;13.70;6.30;;;-1.50;99.70;;;;;;5069851;28;20983;-71
2021/03/07 06:32:55;;;;;;;13.20;6.00;;;-1.50;99.70;;;;;;5070220;28;20495;-72
2021/03/07 06:35:23;;;;;;;12.20;6.33;;;-1.30;99.70;;;;;;5069474;28;20447;-70
2021/03/07 06:37:55;;;;;;;12.80;6.10;;;-1.20;99.70;;;;;;5069688;28;21003;-71
2021/03/07 06:40:31;;;;;;;11.53;6.20;;;-1.20;99.70;;;;;;5069936;28;20455;-71
2021/03/07 06:42:58;;;;;;;15.27;6.47;;;-1.10;99.70;;;;;;5070115;28;20455;-70
2021/03/07 06:45:34;;;;;;;12.33;6.00;;;-1.10;99.70;;;;;;5069221;28;20454;-71
2021/03/07 06:48:01;;;;;;;14.40;6.70;;;-1.20;99.70;;;;;;5069705;28;20473;-71
2021/03/07 06:50:27;;;;;;;14.10;7.30;;;-1.20;99.70;;;;;;5069464;28;20443;-72
2021/03/07 06:52:55;;;;;;;18.00;7.30;;;-1.20;99.70;;;;;;5069827;28;20494;-71
2021/03/07 06:55:27;;;;;;;19.17;8.00;;;-1.10;99.70;;;;;;5069202;28;20944;-71
2021/03/07 06:57:55;;;;;;;20.73;7.90;;;-1.10;99.70;;;;;;5069418;28;20481;-70
2021/03/07 07:00:37;;;;;;;65.37;19.13;;;-0.90;99.70;;;;;;5069711;28;20474;-72
2021/03/07 07:03:09;;;;;;;30.20;11.63;;;-1.00;99.70;;;;;;5068348;28;20447;-71
2021/03/07 07:05:38;;;;;;;30.50;11.00;;;-0.90;99.70;;;;;;5068947;28;20472;-70
2021/03/07 07:08:05;;;;;;;22.20;9.33;;;-0.80;99.70;;;;;;5069168;28;20952;-70
2021/03/07 07:10:58;;;;;;;18.97;8.00;;;-0.60;99.70;;;;;;5069401;28;20447;-73
2021/03/07 07:13:26;;;;;;;14.17;7.30;;;-0.50;99.70;;;;;;5069559;28;20451;-73
2021/03/07 07:16:00;;;;;;;14.00;7.43;;;-0.40;99.70;;;;;;5068781;28;20870;-74
2021/03/07 07:18:28;;;;;;;13.77;6.53;;;-0.30;99.70;;;;;;5069032;28;20489;-75
2021/03/07 07:20:55;;;;;;;13.00;6.80;;;-0.20;99.70;;;;;;5069638;28;20817;-73
2021/03/07 07:23:22;;;;;;;14.63;6.70;;;-0.20;99.70;;;;;;5069653;28;20442;-73
2021/03/07 07:25:48;;;;;;;13.07;7.27;;;0.00;99.70;;;;;;5068817;28;20458;-71
2021/03/07 07:28:15;;;;;;;12.60;6.30;;;0.10;99.70;;;;;;5069612;28;20442;-73
2021/03/07 07:30:42;;;;;;;14.10;6.43;;;0.10;99.70;;;;;;5069334;28;20457;-72
2021/03/07 07:33:15;;;;;;;10.40;6.00;;;0.30;99.70;;;;;;5069206;28;20830;-73
2021/03/07 07:35:43;;;;;;;15.20;6.93;;;0.40;99.70;;;;;;5068833;28;20510;-72
2021/03/07 07:38:12;;;;;;;18.90;8.17;;;0.50;99.70;;;;;;5068837;28;20478;-72
2021/03/07 07:40:40;;;;;;;17.87;8.80;;;0.40;99.70;;;;;;5069280;28;20443;-72
2021/03/07 07:43:07;;;;;;;19.90;9.20;;;0.10;99.70;;;;;;5069007;28;20478;-72
2021/03/07 07:45:33;;;;;;;17.67;8.30;;;0.10;99.70;;;;;;5068876;28;20469;-73
2021/03/07 07:48:01;;;;;;;17.77;8.43;;;0.00;99.70;;;;;;5068844;28;20443;-72
2021/03/07 07:50:35;;;;;;;19.57;8.80;;;-0.10;99.70;;;;;;5069193;28;20443;-73
2021/03/07 07:53:03;;;;;;;17.10;8.60;;;0.10;99.70;;;;;;5069126;28;20458;-73
2021/03/07 07:55:51;;;;;;;18.50;9.37;;;0.30;99.70;;;;;;5068452;28;20458;-72
2021/03/07 07:58:49;;;;;;;21.00;9.37;;;0.60;99.70;;;;;;5062455;28;20489;-72
2021/03/07 08:01:16;;;;;;;21.63;9.27;;;0.80;99.70;;;;;;5069040;28;20450;-74
2021/03/07 08:03:44;;;;;;;17.27;8.17;;;1.00;99.70;;;;;;5067099;28;20870;-70
2021/03/07 08:06:12;;;;;;;18.80;8.80;;;1.60;99.70;;;;;;5068544;28;20470;-71
2021/03/07 08:08:40;;;;;;;17.80;9.27;;;2.30;98.20;;;;;;5068792;28;20439;-70
2021/03/07 08:11:07;;;;;;;17.27;8.30;;;2.90;95.70;;;;;;5069103;28;20450;-70
2021/03/07 08:13:47;;;;;;;18.90;9.60;;;3.40;94.60;;;;;;5069092;28;20454;-71
2021/03/07 08:16:38;;;;;;;18.47;10.87;;;3.80;94.20;;;;;;5068423;28;21047;-71
2021/03/07 08:19:06;;;;;;;20.43;11.87;;;4.00;94.30;;;;;;5068691;28;20483;-71
2021/03/07 08:21:57;;;;;;;18.50;11.07;;;3.80;94.40;;;;;;5069234;28;20944;-71
2021/03/07 08:24:24;;;;;;;19.40;10.93;;;3.60;95.30;;;;;;5068980;28;20466;-69
2021/03/07 08:27:01;;;;;;;19.37;10.60;;;4.00;94.70;;;;;;5069483;28;20517;-71
2021/03/07 08:29:44;;;;;;;20.90;10.77;;;4.10;93.60;;;;;;5072708;28;20531;-71
2021/03/07 08:32:29;;;;;;;20.47;10.53;;;4.40;92.50;;;;;;5072495;28;20446;-73
2021/03/07 08:34:59;;;;;;;19.63;10.77;;;4.40;91.80;;;;;;5072472;28;20504;-68
2021/03/07 08:37:26;;;;;;;18.33;10.30;;;4.60;92.10;;;;;;5072157;28;20447;-70
2021/03/07 08:40:27;;;;;;;19.67;10.50;;;4.60;91.40;;;;;;5072760;28;20446;-71
2021/03/07 08:42:54;;;;;;;19.43;10.20;;;4.30;91.70;;;;;;5072102;28;20503;-71
2021/03/07 08:45:22;;;;;;;19.33;10.07;;;3.60;94.20;;;;;;5071814;28;20443;-71
2021/03/07 08:47:53;;;;;;;17.20;10.67;;;3.40;93.40;;;;;;5072138;28;20488;-72
2021/03/07 08:50:21;;;;;;;17.53;10.03;;;4.00;93.10;;;;;;5072814;28;20454;-71
2021/03/07 08:52:48;;;;;;;17.37;9.63;;;4.20;91.70;;;;;;5072352;28;20964;-71
2021/03/07 08:55:15;;;;;;;17.20;9.83;;;4.50;91.20;;;;;;5071484;28;20457;-71
2021/03/07 08:57:45;;;;;;;20.47;10.60;;;5.00;88.90;;;;;;5071519;28;20486;-71
2021/03/07 09:00:14;;;;;;;17.23;9.60;;;5.40;87.80;;;;;;5071901;28;20447;-72
2021/03/07 09:02:40;;;;;;;21.90;10.30;;;5.30;89.20;;;;;;5069814;28;20826;-71
2021/03/07 09:05:09;;;;;;;19.03;9.57;;;5.50;88.00;;;;;;5073330;28;20841;-70
2021/03/07 09:07:36;;;;;;;17.87;9.43;;;5.90;86.60;;;;;;5071812;28;20458;-71
2021/03/07 09:10:03;;;;;;;18.73;10.03;;;5.90;86.00;;;;;;5072253;28;20861;-70
2021/03/07 09:12:30;;;;;;;17.40;9.80;;;5.90;87.10;;;;;;5072532;28;20439;-68
2021/03/07 09:15:07;;;;;;;19.37;9.53;;;6.40;86.90;;;;;;5069964;28;20462;-71
2021/03/07 09:17:36;;;;;;;17.93;9.37;;;6.80;83.10;;;;;;5070013;28;20576;-71
2021/03/07 09:20:02;;;;;;;16.70;9.60;;;7.10;83.30;;;;;;5070041;28;20442;-72
2021/03/07 09:22:30;;;;;;;21.03;10.57;;;7.40;82.50;;;;;;5070716;28;20454;-72
2021/03/07 09:25:04;;;;;;;15.83;8.73;;;7.30;83.50;;;;;;5069898;28;20827;-69
2021/03/07 09:27:32;;;;;;;14.93;9.43;;;6.80;84.10;;;;;;5061876;28;20470;-68
2021/03/07 09:30:07;;;;;;;16.40;9.70;;;7.10;82.90;;;;;;5070196;28;20470;-69
2021/03/07 09:32:36;;;;;;;16.90;9.90;;;7.40;82.30;;;;;;5070684;28;20448;-70
2021/03/07 09:35:19;;;;;;;18.40;10.20;;;7.60;82.00;;;;;;5070923;28;20853;-72
2021/03/07 09:37:57;;;;;;;19.03;10.13;;;6.90;81.90;;;;;;5066796;28;20620;-69
2021/03/07 09:40:26;;;;;;;19.47;9.80;;;7.50;81.70;;;;;;5064887;28;20541;-70
2021/03/07 09:42:55;;;;;;;18.60;10.30;;;7.70;81.80;;;;;;5064605;28;20822;-71
2021/03/07 09:45:22;;;;;;;17.73;9.77;;;8.00;81.80;;;;;;5072956;28;20451;-70
2021/03/07 09:47:49;;;;;;;81.00;30.13;;;8.20;82.80;;;;;;5073230;28;20442;-71
2021/03/07 09:50:17;;;;;;;22.17;11.50;;;7.70;84.30;;;;;;5069322;28;21047;-71
2021/03/07 09:52:44;;;;;;;35.47;15.67;;;7.70;84.90;;;;;;5070934;28;20447;-71
2021/03/07 09:55:11;;;;;;;23.53;11.87;;;8.40;84.10;;;;;;5070514;28;20819;-72
2021/03/07 09:57:39;;;;;;;23.50;11.83;;;8.90;83.50;;;;;;5064332;28;20483;-71
2021/03/07 10:00:06;;;;;;;19.67;11.00;;;9.20;82.90;;;;;;5052724;28;20451;-71
2021/03/07 10:02:35;;;;;;;83.37;33.47;;;9.00;82.30;;;;;;5050419;28;20454;-71
2021/03/07 10:05:13;;;;;;;23.40;12.47;;;8.80;82.70;;;;;;5057114;28;20445;-68
2021/03/07 10:07:39;;;;;;;22.00;12.30;;;9.00;83.50;;;;;;5070125;28;20435;-71
2021/03/07 10:10:08;;;;;;;21.23;11.57;;;8.60;82.90;;;;;;5070493;28;20446;-70
2021/03/07 10:12:43;;;;;;;25.67;12.13;;;8.30;84.90;;;;;;5070599;28;20446;-71
2021/03/07 10:15:11;;;;;;;20.17;10.77;;;8.20;84.10;;;;;;5070059;28;20458;-71
2021/03/07 10:17:40;;;;;;;20.93;10.90;;;8.20;85.40;;;;;;5070210;28;20550;-71
2021/03/07 10:20:08;;;;;;;22.20;11.90;;;8.00;86.50;;;;;;5069975;28;21042;-69
2021/03/07 10:22:42;;;;;;;22.20;11.20;;;7.40;86.40;;;;;;5069531;28;20516;-71
2021/03/07 10:25:20;;;;;;;23.63;11.90;;;7.50;87.40;;;;;;5067588;28;20447;-72
2021/03/07 10:27:53;;;;;;;23.93;11.33;;;6.90;88.90;;;;;;5069697;28;20462;-71
2021/03/07 10:30:28;;;;;;;22.10;11.70;;;7.20;88.20;;;;;;5069867;28;20442;-71
2021/03/07 10:33:11;;;;;;;25.80;13.70;;;7.10;89.00;;;;;;5069263;28;20474;-71
2021/03/07 10:35:38;;;;;;;24.27;12.10;;;7.30;87.70;;;;;;5069374;28;20540;-71
2021/03/07 10:38:04;;;;;;;24.03;12.10;;;7.20;86.90;;;;;;5069405;28;20536;-71
2021/03/07 10:40:32;;;;;;;21.80;11.40;;;7.10;88.20;;;;;;5070042;28;20446;-71
2021/03/07 10:43:02;;;;;;;22.20;10.90;;;7.10;87.10;;;;;;5069532;28;20454;-71
2021/03/07 10:45:29;;;;;;;23.63;12.03;;;7.50;88.60;;;;;;5069988;28;20951;-71
2021/03/07 10:48:00;;;;;;;23.47;11.90;;;7.30;86.70;;;;;;5070604;28;20948;-71
2021/03/07 10:50:26;;;;;;;21.17;11.07;;;7.30;87.90;;;;;;5069626;28;20450;-71
2021/03/07 10:52:53;;;;;;;23.63;11.77;;;7.20;88.40;;;;;;5070182;28;20512;-71
2021/03/07 10:55:20;;;;;;;20.70;10.60;;;7.40;87.90;;;;;;5068504;28;20447;-70
2021/03/07 10:57:46;;;;;;;25.10;12.37;;;7.50;87.90;;;;;;5071136;28;20528;-71
2021/03/07 11:00:14;;;;;;;25.20;11.97;;;7.20;86.80;;;;;;5069397;28;20809;-71
2021/03/07 11:02:42;;;;;;;24.67;12.20;;;6.60;87.70;;;;;;5068921;28;20446;-71
2021/03/07 11:05:10;;;;;;;25.87;11.83;;;6.80;89.00;;;;;;5070043;28;20439;-69
2021/03/07 11:07:36;;;;;;;24.57;11.07;;;7.00;89.10;;;;;;5069245;28;20470;-71
2021/03/07 11:10:03;;;;;;;20.93;10.60;;;6.90;87.60;;;;;;5070429;28;20866;-71
2021/03/07 11:12:29;;;;;;;26.83;10.97;;;6.90;88.30;;;;;;5069679;28;20443;-71
2021/03/07 11:14:55;;;;;;;53.43;20.27;;;6.90;88.70;;;;;;5069706;28;20463;-66
2021/03/07 11:17:22;;;;;;;29.13;12.70;;;6.90;90.20;;;;;;5069731;28;20459;-71
2021/03/07 11:19:49;;;;;;;24.17;11.57;;;7.00;88.70;;;;;;5069410;28;20439;-71
2021/03/07 11:22:15;;;;;;;64.33;23.50;;;7.20;88.10;;;;;;5069300;28;20462;-71
2021/03/07 11:24:41;;;;;;;24.80;11.30;;;7.40;89.20;;;;;;5068947;28;20511;-71
2021/03/07 11:27:08;;;;;;;24.00;11.90;;;7.80;87.30;;;;;;5068846;28;20465;-72
2021/03/07 11:29:34;;;;;;;22.53;11.03;;;7.70;86.30;;;;;;5068914;28;20443;-72
2021/03/07 11:32:01;;;;;;;21.70;11.63;;;7.90;87.00;;;;;;5069605;28;20588;-72
2021/03/07 11:34:28;;;;;;;25.30;12.00;;;7.80;85.50;;;;;;5066410;28;20458;-69
2021/03/07 11:36:54;;;;;;;21.97;11.23;;;7.80;85.60;;;;;;5060055;28;20478;-70
2021/03/07 11:39:21;;;;;;;26.30;11.83;;;7.90;85.40;;;;;;5051686;28;20545;-70
2021/03/07 11:41:47;;;;;;;21.50;10.70;;;7.90;84.90;;;;;;5062506;28;21013;-73
2021/03/07 11:44:13;;;;;;;24.10;11.90;;;7.90;85.00;;;;;;5070795;28;20943;-69
2021/03/07 11:46:40;;;;;;;23.70;11.50;;;7.80;84.70;;;;;;5062012;28;20923;-70
2021/03/07 11:49:06;;;;;;;25.53;11.87;;;7.80;84.90;;;;;;5128890;22;20486;-72
2021/03/07 11:51:34;;;;;;;28.30;12.80;;;7.70;84.70;;;;;;5058601;28;20444;-71
2021/03/07 11:54:01;;;;;;;23.27;11.97;;;7.50;85.30;;;;;;5053511;28;20508;-71
2021/03/07 11:56:28;;;;;;;25.33;12.30;;;7.60;85.50;;;;;;5057039;28;20898;-69
2021/03/07 11:58:54;;;;;;;28.00;12.07;;;7.60;85.60;;;;;;5056885;28;20524;-70
2021/03/07 12:01:20;;;;;;;25.80;12.20;;;7.50;86.00;;;;;;5065878;28;20439;-70
2021/03/07 12:03:46;;;;;;;23.97;11.40;;;7.30;86.60;;;;;;5057938;28;20446;-70
2021/03/07 12:06:12;;;;;;;26.43;12.17;;;7.40;85.40;;;;;;5056614;28;20486;-70
2021/03/07 12:08:40;;;;;;;22.30;10.77;;;7.30;84.90;;;;;;5056921;28;20447;-72
2021/03/07 12:11:06;;;;;;;21.33;10.93;;;7.40;84.70;;;;;;5063060;28;20730;-71
2021/03/07 12:13:32;;;;;;;25.03;11.53;;;7.30;84.90;;;;;;5058556;28;20443;-71
2021/03/07 12:15:58;;;;;;;22.97;11.40;;;7.40;85.50;;;;;;5068572;28;20868;-72
2021/03/07 12:18:24;;;;;;;20.77;11.30;;;7.40;86.30;;;;;;5071401;28;21043;-70
2021/03/07 12:20:51;;;;;;;23.27;10.67;;;7.40;86.10;;;;;;5070891;28;20881;-70
2021/03/07 12:23:17;;;;;;;26.77;12.73;;;7.30;87.20;;;;;;5072045;28;20445;-70
2021/03/07 12:25:44;;;;;;;26.03;12.20;;;7.30;87.00;;;;;;5071143;28;20465;-72
2021/03/07 12:28:10;;;;;;;23.87;12.30;;;7.40;86.60;;;;;;5071030;28;20446;-69
2021/03/07 12:30:37;;;;;;;26.43;12.10;;;7.40;86.00;;;;;;5071808;28;20466;-72
2021/03/07 12:33:03;;;;;;;28.67;13.10;;;7.50;86.60;;;;;;5070672;28;20442;-69
2021/03/07 12:35:29;;;;;;;25.03;11.90;;;7.40;86.10;;;;;;5071124;28;20744;-71
2021/03/07 12:37:56;;;;;;;25.97;12.10;;;7.40;86.80;;;;;;5070883;28;20532;-70
2021/03/07 12:40:22;;;;;;;25.13;11.80;;;7.30;86.40;;;;;;5070908;28;20542;-73
2021/03/07 12:42:49;;;;;;;27.10;12.10;;;7.40;87.00;;;;;;5071766;28;20461;-70
2021/03/07 12:45:15;;;;;;;23.67;11.97;;;7.50;86.50;;;;;;5070358;28;20453;-72